sensor_id;sensor_type;location;lat;lon;timestamp;temperature;humidity
41294;DHT22;27037;52.010;4.446;2024-03-25T00:02:09;6.20;99.90
41294;DHT22;27037;52.010;4.446;2024-03-25T00:04:35;6.10;99.90
41294;DHT22;27037;52.010;4.446;2024-03-25T00:07:01;6.10;99.90
41294;DHT22;27037;52.010;4.446;2024-03-25T00:09:27;6.10;99.90
41294;DHT22;27037;52.010;4.446;2024-03-25T00:11:53;6.00;99.90
41294;DHT22;27037;52.010;4.446;2024-03-25T00:14:20;6.00;99.90
41294;DHT22;27037;52.010;4.446;2024-03-25T00:16:46;6.00;99.90
41294;DHT22;27037;52.010;4.446;2024-03-25T00:19:12;5.90;99.90
41294;DHT22;27037;52.010;4.446;2024-03-25T00:21:37;5.90;99.90
41294;DHT22;27037;52.010;4.446;2024-03-25T00:24:03;5.90;99.90
41294;DHT22;27037;52.010;4.446;2024-03-25T00:26:29;5.90;99.90
41294;DHT22;27037;52.010;4.446;2024-03-25T00:28:55;5.90;99.90
41294;DHT22;27037;52.010;4.446;2024-03-25T00:31:20;5.90;99.90
41294;DHT22;27037;52.010;4.446;2024-03-25T00:33:46;5.90;99.90
41294;DHT22;27037;52.010;4.446;2024-03-25T00:36:12;5.90;99.90
41294;DHT22;27037;52.010;4.446;2024-03-25T00:38:38;5.90;99.90
41294;DHT22;27037;52.010;4.446;2024-03-25T00:41:03;5.90;99.90
41294;DHT22;27037;52.010;4.446;2024-03-25T00:43:29;5.90;99.90
41294;DHT22;27037;52.010;4.446;2024-03-25T00:45:55;5.90;99.90
41294;DHT22;27037;52.010;4.446;2024-03-25T00:48:22;5.90;99.90
41294;DHT22;27037;52.010;4.446;2024-03-25T00:50:48;5.80;99.90
41294;DHT22;27037;52.010;4.446;2024-03-25T00:53:14;5.90;99.90
41294;DHT22;27037;52.010;4.446;2024-03-25T00:55:40;5.80;99.90
41294;DHT22;27037;52.010;4.446;2024-03-25T00:58:05;5.80;99.90
41294;DHT22;27037;52.010;4.446;2024-03-25T01:00:31;5.80;99.90
41294;DHT22;27037;52.010;4.446;2024-03-25T01:02:57;5.80;99.90
41294;DHT22;27037;52.010;4.446;2024-03-25T01:05:22;5.80;99.90
41294;DHT22;27037;52.010;4.446;2024-03-25T01:07:48;5.70;99.90
41294;DHT22;27037;52.010;4.446;2024-03-25T01:10:15;5.80;99.90
41294;DHT22;27037;52.010;4.446;2024-03-25T01:12:41;5.70;99.90
41294;DHT22;27037;52.010;4.446;2024-03-25T01:15:07;5.70;99.90
41294;DHT22;27037;52.010;4.446;2024-03-25T01:17:35;5.70;99.90
41294;DHT22;27037;52.010;4.446;2024-03-25T01:20:01;5.70;99.90
41294;DHT22;27037;52.010;4.446;2024-03-25T01:22:26;5.60;99.90
41294;DHT22;27037;52.010;4.446;2024-03-25T01:24:52;5.50;99.90
41294;DHT22;27037;52.010;4.446;2024-03-25T01:27:18;5.50;99.90
41294;DHT22;27037;52.010;4.446;2024-03-25T01:29:43;5.50;99.90
41294;DHT22;27037;52.010;4.446;2024-03-25T01:32:09;5.50;99.90
41294;DHT22;27037;52.010;4.446;2024-03-25T01:34:34;5.50;99.90
41294;DHT22;27037;52.010;4.446;2024-03-25T01:37:00;5.40;99.90
41294;DHT22;27037;52.010;4.446;2024-03-25T01:39:25;5.40;99.90
41294;DHT22;27037;52.010;4.446;2024-03-25T01:41:51;5.40;99.90
41294;DHT22;27037;52.010;4.446;2024-03-25T01:44:16;5.30;99.90
41294;DHT22;27037;52.010;4.446;2024-03-25T01:46:42;5.30;99.90
41294;DHT22;27037;52.010;4.446;2024-03-25T01:49:08;5.30;99.90
41294;DHT22;27037;52.010;4.446;2024-03-25T01:51:35;5.30;99.90
41294;DHT22;27037;52.010;4.446;2024-03-25T01:54:01;5.30;99.90
41294;DHT22;27037;52.010;4.446;2024-03-25T01:56:31;5.20;99.90
41294;DHT22;27037;52.010;4.446;2024-03-25T01:58:58;5.20;99.90
41294;DHT22;27037;52.010;4.446;2024-03-25T02:01:24;5.20;99.90
41294;DHT22;27037;52.010;4.446;2024-03-25T02:03:50;5.30;99.90
41294;DHT22;27037;52.010;4.446;2024-03-25T02:06:17;5.30;99.90
41294;DHT22;27037;52.010;4.446;2024-03-25T02:08:44;5.30;99.90
41294;DHT22;27037;52.010;4.446;2024-03-25T02:11:10;5.40;99.90
41294;DHT22;27037;52.010;4.446;2024-03-25T02:13:36;5.40;99.90
41294;DHT22;27037;52.010;4.446;2024-03-25T02:16:03;5.40;99.90
41294;DHT22;27037;52.010;4.446;2024-03-25T02:18:29;5.50;99.90
41294;DHT22;27037;52.010;4.446;2024-03-25T02:20:56;5.50;99.90
41294;DHT22;27037;52.010;4.446;2024-03-25T02:23:22;5.50;99.90
41294;DHT22;27037;52.010;4.446;2024-03-25T02:25:50;5.50;99.90
41294;DHT22;27037;52.010;4.446;2024-03-25T02:28:16;5.50;99.90
41294;DHT22;27037;52.010;4.446;2024-03-25T02:30:42;5.50;99.90
41294;DHT22;27037;52.010;4.446;2024-03-25T02:33:07;5.50;99.90
41294;DHT22;27037;52.010;4.446;2024-03-25T02:35:33;5.50;99.90
41294;DHT22;27037;52.010;4.446;2024-03-25T02:38:00;5.50;99.90
41294;DHT22;27037;52.010;4.446;2024-03-25T02:40:26;5.50;99.90
41294;DHT22;27037;52.010;4.446;2024-03-25T02:42:51;5.50;99.90
41294;DHT22;27037;52.010;4.446;2024-03-25T02:45:17;5.50;99.90
41294;DHT22;27037;52.010;4.446;2024-03-25T02:47:46;5.50;99.90
41294;DHT22;27037;52.010;4.446;2024-03-25T02:50:12;5.50;99.90
41294;DHT22;27037;52.010;4.446;2024-03-25T02:52:38;5.40;99.90
41294;DHT22;27037;52.010;4.446;2024-03-25T02:55:03;5.40;99.90
41294;DHT22;27037;52.010;4.446;2024-03-25T02:57:29;5.30;99.90
41294;DHT22;27037;52.010;4.446;2024-03-25T02:59:55;5.30;99.90
41294;DHT22;27037;52.010;4.446;2024-03-25T03:02:20;5.30;99.90
41294;DHT22;27037;52.010;4.446;2024-03-25T03:04:46;5.20;99.90
41294;DHT22;27037;52.010;4.446;2024-03-25T03:07:11;5.20;99.90
41294;DHT22;27037;52.010;4.446;2024-03-25T03:09:37;5.20;99.90
41294;DHT22;27037;52.010;4.446;2024-03-25T03:12:03;5.10;99.90
41294;DHT22;27037;52.010;4.446;2024-03-25T03:14:28;5.10;99.90
41294;DHT22;27037;52.010;4.446;2024-03-25T03:16:54;5.10;99.90
41294;DHT22;27037;52.010;4.446;2024-03-25T03:19:22;5.10;99.90
41294;DHT22;27037;52.010;4.446;2024-03-25T03:21:47;5.10;99.90
41294;DHT22;27037;52.010;4.446;2024-03-25T03:24:13;5.00;99.90
41294;DHT22;27037;52.010;4.446;2024-03-25T03:26:38;5.00;99.90
41294;DHT22;27037;52.010;4.446;2024-03-25T03:29:04;5.00;99.90
41294;DHT22;27037;52.010;4.446;2024-03-25T03:31:30;5.00;99.90
41294;DHT22;27037;52.010;4.446;2024-03-25T03:33:55;5.00;99.90
41294;DHT22;27037;52.010;4.446;2024-03-25T03:36:22;5.00;99.90
41294;DHT22;27037;52.010;4.446;2024-03-25T03:38:51;4.90;99.90
41294;DHT22;27037;52.010;4.446;2024-03-25T03:41:17;4.90;99.90
41294;DHT22;27037;52.010;4.446;2024-03-25T03:43:43;4.90;99.90
41294;DHT22;27037;52.010;4.446;2024-03-25T03:46:09;4.90;99.90
41294;DHT22;27037;52.010;4.446;2024-03-25T03:48:34;4.90;99.90
41294;DHT22;27037;52.010;4.446;2024-03-25T03:51:01;4.80;99.90
41294;DHT22;27037;52.010;4.446;2024-03-25T03:53:26;4.80;99.90
41294;DHT22;27037;52.010;4.446;2024-03-25T03:55:56;4.80;99.90
41294;DHT22;27037;52.010;4.446;2024-03-25T03:58:22;4.80;99.90
41294;DHT22;27037;52.010;4.446;2024-03-25T04:00:47;4.80;99.90
41294;DHT22;27037;52.010;4.446;2024-03-25T04:03:13;4.80;99.90
41294;DHT22;27037;52.010;4.446;2024-03-25T04:05:39;4.70;99.90
41294;DHT22;27037;52.010;4.446;2024-03-25T04:08:05;4.70;99.90
41294;DHT22;27037;52.010;4.446;2024-03-25T04:10:30;4.70;99.90
41294;DHT22;27037;52.010;4.446;2024-03-25T04:12:56;4.70;99.90
41294;DHT22;27037;52.010;4.446;2024-03-25T04:15:22;4.70;99.90
41294;DHT22;27037;52.010;4.446;2024-03-25T04:17:48;4.70;99.90
41294;DHT22;27037;52.010;4.446;2024-03-25T04:20:16;4.70;99.90
41294;DHT22;27037;52.010;4.446;2024-03-25T04:22:43;4.70;99.90
41294;DHT22;27037;52.010;4.446;2024-03-25T04:25:10;4.60;99.90
41294;DHT22;27037;52.010;4.446;2024-03-25T04:27:43;4.60;99.90
41294;DHT22;27037;52.010;4.446;2024-03-25T04:30:10;4.60;99.90
41294;DHT22;27037;52.010;4.446;2024-03-25T04:32:37;4.60;99.90
41294;DHT22;27037;52.010;4.446;2024-03-25T04:35:03;4.60;99.90
41294;DHT22;27037;52.010;4.446;2024-03-25T04:37:29;4.60;99.90
41294;DHT22;27037;52.010;4.446;2024-03-25T04:39:55;4.60;99.90
41294;DHT22;27037;52.010;4.446;2024-03-25T04:42:21;4.60;99.90
41294;DHT22;27037;52.010;4.446;2024-03-25T04:44:47;4.50;99.90
41294;DHT22;27037;52.010;4.446;2024-03-25T04:47:13;4.50;99.90
41294;DHT22;27037;52.010;4.446;2024-03-25T04:49:39;4.40;99.90
41294;DHT22;27037;52.010;4.446;2024-03-25T04:52:05;4.40;99.90
41294;DHT22;27037;52.010;4.446;2024-03-25T04:54:31;4.40;99.90
41294;DHT22;27037;52.010;4.446;2024-03-25T04:56:56;4.40;99.90
41294;DHT22;27037;52.010;4.446;2024-03-25T04:59:22;4.30;99.90
41294;DHT22;27037;52.010;4.446;2024-03-25T05:01:47;4.30;99.90
41294;DHT22;27037;52.010;4.446;2024-03-25T05:04:13;4.30;99.90
41294;DHT22;27037;52.010;4.446;2024-03-25T05:06:39;4.20;99.90
41294;DHT22;27037;52.010;4.446;2024-03-25T05:09:04;4.30;99.90
41294;DHT22;27037;52.010;4.446;2024-03-25T05:11:32;4.30;99.90
41294;DHT22;27037;52.010;4.446;2024-03-25T05:13:57;4.30;99.90
41294;DHT22;27037;52.010;4.446;2024-03-25T05:16:23;4.20;99.90
41294;DHT22;27037;52.010;4.446;2024-03-25T05:18:49;4.20;99.90
41294;DHT22;27037;52.010;4.446;2024-03-25T05:21:14;4.20;99.90
41294;DHT22;27037;52.010;4.446;2024-03-25T05:23:40;4.30;99.90
41294;DHT22;27037;52.010;4.446;2024-03-25T05:26:05;4.30;99.90
41294;DHT22;27037;52.010;4.446;2024-03-25T05:28:31;4.30;99.90
41294;DHT22;27037;52.010;4.446;2024-03-25T05:30:57;4.30;99.90
41294;DHT22;27037;52.010;4.446;2024-03-25T05:33:22;4.20;99.90
41294;DHT22;27037;52.010;4.446;2024-03-25T05:35:48;4.20;99.90
41294;DHT22;27037;52.010;4.446;2024-03-25T05:38:14;4.20;99.90
41294;DHT22;27037;52.010;4.446;2024-03-25T05:40:39;4.20;99.90
41294;DHT22;27037;52.010;4.446;2024-03-25T05:43:05;4.20;99.90
41294;DHT22;27037;52.010;4.446;2024-03-25T05:45:30;4.10;99.90
41294;DHT22;27037;52.010;4.446;2024-03-25T05:47:56;4.10;99.90
41294;DHT22;27037;52.010;4.446;2024-03-25T05:50:21;4.10;99.90
41294;DHT22;27037;52.010;4.446;2024-03-25T05:52:47;4.10;99.90
41294;DHT22;27037;52.010;4.446;2024-03-25T05:55:12;4.00;99.90
41294;DHT22;27037;52.010;4.446;2024-03-25T05:57:39;4.00;99.90
41294;DHT22;27037;52.010;4.446;2024-03-25T06:00:05;4.00;99.90
41294;DHT22;27037;52.010;4.446;2024-03-25T06:02:33;4.00;99.90
41294;DHT22;27037;52.010;4.446;2024-03-25T06:04:58;4.00;99.90
41294;DHT22;27037;52.010;4.446;2024-03-25T06:07:24;4.00;99.90
41294;DHT22;27037;52.010;4.446;2024-03-25T06:09:49;4.00;99.90
41294;DHT22;27037;52.010;4.446;2024-03-25T06:12:15;3.90;99.90
41294;DHT22;27037;52.010;4.446;2024-03-25T06:14:40;4.00;99.90
41294;DHT22;27037;52.010;4.446;2024-03-25T06:17:06;3.90;99.90
41294;DHT22;27037;52.010;4.446;2024-03-25T06:19:31;3.90;99.90
41294;DHT22;27037;52.010;4.446;2024-03-25T06:21:57;3.90;99.90
41294;DHT22;27037;52.010;4.446;2024-03-25T06:24:22;4.00;99.90
41294;DHT22;27037;52.010;4.446;2024-03-25T06:26:49;4.00;99.90
41294;DHT22;27037;52.010;4.446;2024-03-25T06:29:14;4.00;99.90
41294;DHT22;27037;52.010;4.446;2024-03-25T06:31:40;4.00;99.90
41294;DHT22;27037;52.010;4.446;2024-03-25T06:34:24;4.00;99.90
41294;DHT22;27037;52.010;4.446;2024-03-25T06:36:50;4.00;99.90
41294;DHT22;27037;52.010;4.446;2024-03-25T06:39:15;4.10;99.90
41294;DHT22;27037;52.010;4.446;2024-03-25T06:41:41;4.10;99.90
41294;DHT22;27037;52.010;4.446;2024-03-25T06:44:07;4.10;99.90
41294;DHT22;27037;52.010;4.446;2024-03-25T06:46:33;4.10;99.90
41294;DHT22;27037;52.010;4.446;2024-03-25T06:48:59;4.20;99.90
41294;DHT22;27037;52.010;4.446;2024-03-25T06:51:25;4.20;99.90
41294;DHT22;27037;52.010;4.446;2024-03-25T06:53:50;4.30;99.90
41294;DHT22;27037;52.010;4.446;2024-03-25T06:56:16;4.40;99.90
41294;DHT22;27037;52.010;4.446;2024-03-25T06:58:42;4.40;99.90
41294;DHT22;27037;52.010;4.446;2024-03-25T07:01:09;4.50;99.90
41294;DHT22;27037;52.010;4.446;2024-03-25T07:03:35;4.60;99.90
41294;DHT22;27037;52.010;4.446;2024-03-25T07:06:01;4.60;99.90
41294;DHT22;27037;52.010;4.446;2024-03-25T07:08:27;4.70;99.90
41294;DHT22;27037;52.010;4.446;2024-03-25T07:10:53;4.80;99.90
41294;DHT22;27037;52.010;4.446;2024-03-25T07:13:19;4.90;99.90
41294;DHT22;27037;52.010;4.446;2024-03-25T07:15:45;5.10;99.90
41294;DHT22;27037;52.010;4.446;2024-03-25T07:18:10;5.20;99.90
41294;DHT22;27037;52.010;4.446;2024-03-25T07:20:38;5.30;99.90
41294;DHT22;27037;52.010;4.446;2024-03-25T07:23:04;5.40;99.90
41294;DHT22;27037;52.010;4.446;2024-03-25T07:25:30;5.50;99.90
41294;DHT22;27037;52.010;4.446;2024-03-25T07:27:56;5.50;99.90
41294;DHT22;27037;52.010;4.446;2024-03-25T07:30:22;5.60;99.90
41294;DHT22;27037;52.010;4.446;2024-03-25T07:32:50;5.60;99.90
41294;DHT22;27037;52.010;4.446;2024-03-25T07:35:16;5.70;99.90
41294;DHT22;27037;52.010;4.446;2024-03-25T07:37:42;5.80;99.90
41294;DHT22;27037;52.010;4.446;2024-03-25T07:40:08;5.80;99.90
41294;DHT22;27037;52.010;4.446;2024-03-25T07:42:37;5.90;99.90
41294;DHT22;27037;52.010;4.446;2024-03-25T07:45:03;6.00;99.90
41294;DHT22;27037;52.010;4.446;2024-03-25T07:47:30;6.10;99.90
41294;DHT22;27037;52.010;4.446;2024-03-25T07:49:56;6.20;99.90
41294;DHT22;27037;52.010;4.446;2024-03-25T07:52:21;6.30;99.90
41294;DHT22;27037;52.010;4.446;2024-03-25T07:54:47;6.30;99.90
41294;DHT22;27037;52.010;4.446;2024-03-25T07:57:12;6.50;99.90
41294;DHT22;27037;52.010;4.446;2024-03-25T07:59:38;6.60;99.90
41294;DHT22;27037;52.010;4.446;2024-03-25T08:02:04;6.70;99.90
41294;DHT22;27037;52.010;4.446;2024-03-25T08:04:30;6.80;99.90
41294;DHT22;27037;52.010;4.446;2024-03-25T08:06:56;6.80;99.90
41294;DHT22;27037;52.010;4.446;2024-03-25T08:09:22;6.90;99.90
41294;DHT22;27037;52.010;4.446;2024-03-25T08:11:47;7.10;99.90
41294;DHT22;27037;52.010;4.446;2024-03-25T08:14:13;7.10;99.90
41294;DHT22;27037;52.010;4.446;2024-03-25T08:16:38;7.20;99.90
41294;DHT22;27037;52.010;4.446;2024-03-25T08:19:04;7.40;99.90
41294;DHT22;27037;52.010;4.446;2024-03-25T08:21:30;7.40;99.90
41294;DHT22;27037;52.010;4.446;2024-03-25T08:23:55;7.50;99.90
41294;DHT22;27037;52.010;4.446;2024-03-25T08:26:21;7.60;99.90
41294;DHT22;27037;52.010;4.446;2024-03-25T08:28:46;7.70;99.90
41294;DHT22;27037;52.010;4.446;2024-03-25T08:31:14;7.80;99.90
41294;DHT22;27037;52.010;4.446;2024-03-25T08:33:40;8.00;99.90
41294;DHT22;27037;52.010;4.446;2024-03-25T08:36:05;8.10;99.90
41294;DHT22;27037;52.010;4.446;2024-03-25T08:38:31;8.20;99.90
41294;DHT22;27037;52.010;4.446;2024-03-25T08:40:57;8.30;99.90
41294;DHT22;27037;52.010;4.446;2024-03-25T08:43:22;8.40;99.90
41294;DHT22;27037;52.010;4.446;2024-03-25T08:45:48;8.50;99.90
41294;DHT22;27037;52.010;4.446;2024-03-25T08:48:13;8.70;99.90
41294;DHT22;27037;52.010;4.446;2024-03-25T08:50:39;8.80;99.90
41294;DHT22;27037;52.010;4.446;2024-03-25T08:53:04;8.90;99.90
41294;DHT22;27037;52.010;4.446;2024-03-25T08:55:30;9.10;99.90
41294;DHT22;27037;52.010;4.446;2024-03-25T08:57:57;9.20;99.90
41294;DHT22;27037;52.010;4.446;2024-03-25T09:00:24;9.30;99.90
41294;DHT22;27037;52.010;4.446;2024-03-25T09:02:50;9.50;99.90
41294;DHT22;27037;52.010;4.446;2024-03-25T09:05:16;9.60;99.90
41294;DHT22;27037;52.010;4.446;2024-03-25T09:07:44;9.70;99.90
41294;DHT22;27037;52.010;4.446;2024-03-25T09:10:10;9.80;99.90
41294;DHT22;27037;52.010;4.446;2024-03-25T09:12:54;9.90;99.90
41294;DHT22;27037;52.010;4.446;2024-03-25T09:15:19;10.10;99.90
41294;DHT22;27037;52.010;4.446;2024-03-25T09:17:45;10.10;99.90
41294;DHT22;27037;52.010;4.446;2024-03-25T09:20:11;10.30;99.90
41294;DHT22;27037;52.010;4.446;2024-03-25T09:22:44;10.30;99.90
41294;DHT22;27037;52.010;4.446;2024-03-25T09:25:11;10.40;99.90
41294;DHT22;27037;52.010;4.446;2024-03-25T09:27:36;10.50;99.90
41294;DHT22;27037;52.010;4.446;2024-03-25T09:30:03;10.40;99.90
41294;DHT22;27037;52.010;4.446;2024-03-25T09:32:34;10.40;99.90
41294;DHT22;27037;52.010;4.446;2024-03-25T09:34:59;10.50;99.90
41294;DHT22;27037;52.010;4.446;2024-03-25T09:37:25;10.60;99.90
41294;DHT22;27037;52.010;4.446;2024-03-25T09:39:52;10.70;99.90
41294;DHT22;27037;52.010;4.446;2024-03-25T09:42:27;10.70;99.90
41294;DHT22;27037;52.010;4.446;2024-03-25T09:44:56;10.60;99.90
41294;DHT22;27037;52.010;4.446;2024-03-25T09:47:22;10.70;99.90
41294;DHT22;27037;52.010;4.446;2024-03-25T09:49:48;10.80;99.90
41294;DHT22;27037;52.010;4.446;2024-03-25T09:52:18;10.80;99.90
41294;DHT22;27037;52.010;4.446;2024-03-25T09:54:44;10.70;99.90
41294;DHT22;27037;52.010;4.446;2024-03-25T09:57:10;10.70;99.90
41294;DHT22;27037;52.010;4.446;2024-03-25T09:59:36;10.60;99.90
41294;DHT22;27037;52.010;4.446;2024-03-25T10:02:02;10.60;99.90
41294;DHT22;27037;52.010;4.446;2024-03-25T10:04:29;10.60;99.90
41294;DHT22;27037;52.010;4.446;2024-03-25T10:06:55;10.60;99.90
41294;DHT22;27037;52.010;4.446;2024-03-25T10:09:21;10.70;99.90
41294;DHT22;27037;52.010;4.446;2024-03-25T10:11:50;10.70;99.90
41294;DHT22;27037;52.010;4.446;2024-03-25T10:14:16;10.70;99.90
41294;DHT22;27037;52.010;4.446;2024-03-25T10:16:43;10.80;99.90
41294;DHT22;27037;52.010;4.446;2024-03-25T10:19:09;10.90;99.90
41294;DHT22;27037;52.010;4.446;2024-03-25T10:21:35;11.00;99.90
41294;DHT22;27037;52.010;4.446;2024-03-25T10:24:00;11.20;99.90
41294;DHT22;27037;52.010;4.446;2024-03-25T10:26:30;11.30;99.90
41294;DHT22;27037;52.010;4.446;2024-03-25T10:31:26;11.50;99.90
41294;DHT22;27037;52.010;4.446;2024-03-25T10:33:52;11.80;99.90
41294;DHT22;27037;52.010;4.446;2024-03-25T10:36:19;11.90;99.90
41294;DHT22;27037;52.010;4.446;2024-03-25T10:38:46;12.10;99.90
41294;DHT22;27037;52.010;4.446;2024-03-25T10:41:16;12.20;99.90
41294;DHT22;27037;52.010;4.446;2024-03-25T10:43:46;12.40;99.90
41294;DHT22;27037;52.010;4.446;2024-03-25T10:46:17;12.50;99.90
41294;DHT22;27037;52.010;4.446;2024-03-25T10:51:16;12.80;99.90
41294;DHT22;27037;52.010;4.446;2024-03-25T10:53:43;12.90;99.90
41294;DHT22;27037;52.010;4.446;2024-03-25T10:56:10;13.00;99.90
41294;DHT22;27037;52.010;4.446;2024-03-25T10:58:38;13.00;99.90
41294;DHT22;27037;52.010;4.446;2024-03-25T11:01:05;13.00;99.90
41294;DHT22;27037;52.010;4.446;2024-03-25T11:03:31;13.00;99.90
41294;DHT22;27037;52.010;4.446;2024-03-25T11:05:57;13.00;99.90
41294;DHT22;27037;52.010;4.446;2024-03-25T11:08:31;13.10;99.90
41294;DHT22;27037;52.010;4.446;2024-03-25T11:10:57;13.20;99.90
41294;DHT22;27037;52.010;4.446;2024-03-25T11:13:23;13.20;99.90
41294;DHT22;27037;52.010;4.446;2024-03-25T11:15:49;13.20;99.90
41294;DHT22;27037;52.010;4.446;2024-03-25T11:18:18;13.30;99.90
41294;DHT22;27037;52.010;4.446;2024-03-25T11:20:44;13.40;99.90
41294;DHT22;27037;52.010;4.446;2024-03-25T11:23:14;13.50;99.90
41294;DHT22;27037;52.010;4.446;2024-03-25T11:25:41;13.60;99.90
41294;DHT22;27037;52.010;4.446;2024-03-25T11:28:08;13.70;99.90
41294;DHT22;27037;52.010;4.446;2024-03-25T11:30:36;13.80;99.90
41294;DHT22;27037;52.010;4.446;2024-03-25T11:33:02;13.80;99.90
41294;DHT22;27037;52.010;4.446;2024-03-25T11:35:30;13.70;99.90
41294;DHT22;27037;52.010;4.446;2024-03-25T11:37:56;13.80;99.90
41294;DHT22;27037;52.010;4.446;2024-03-25T11:40:21;13.90;99.90
41294;DHT22;27037;52.010;4.446;2024-03-25T11:42:47;14.00;99.90
41294;DHT22;27037;52.010;4.446;2024-03-25T11:45:17;14.10;99.90
41294;DHT22;27037;52.010;4.446;2024-03-25T11:47:44;14.20;99.90
41294;DHT22;27037;52.010;4.446;2024-03-25T11:50:16;14.30;99.90
41294;DHT22;27037;52.010;4.446;2024-03-25T11:52:42;14.30;99.90
41294;DHT22;27037;52.010;4.446;2024-03-25T11:55:08;14.30;99.90
41294;DHT22;27037;52.010;4.446;2024-03-25T11:57:35;14.40;99.90
41294;DHT22;27037;52.010;4.446;2024-03-25T12:00:02;14.40;99.90
41294;DHT22;27037;52.010;4.446;2024-03-25T12:02:31;14.40;99.90
41294;DHT22;27037;52.010;4.446;2024-03-25T12:04:56;14.40;99.90
41294;DHT22;27037;52.010;4.446;2024-03-25T12:07:22;14.40;99.90
41294;DHT22;27037;52.010;4.446;2024-03-25T12:09:48;14.40;99.90
41294;DHT22;27037;52.010;4.446;2024-03-25T12:12:32;14.50;99.90
41294;DHT22;27037;52.010;4.446;2024-03-25T12:14:58;14.50;99.90
41294;DHT22;27037;52.010;4.446;2024-03-25T12:17:24;14.60;99.90
41294;DHT22;27037;52.010;4.446;2024-03-25T12:20:06;14.70;99.90
41294;DHT22;27037;52.010;4.446;2024-03-25T12:22:36;14.80;99.90
41294;DHT22;27037;52.010;4.446;2024-03-25T12:25:03;14.90;99.90
41294;DHT22;27037;52.010;4.446;2024-03-25T12:27:29;14.90;99.90
41294;DHT22;27037;52.010;4.446;2024-03-25T12:30:09;14.90;99.10
41294;DHT22;27037;52.010;4.446;2024-03-25T12:32:45;14.90;97.70
41294;DHT22;27037;52.010;4.446;2024-03-25T12:35:12;15.00;97.90
41294;DHT22;27037;52.010;4.446;2024-03-25T12:37:39;15.10;97.30
41294;DHT22;27037;52.010;4.446;2024-03-25T12:40:05;15.10;98.10
41294;DHT22;27037;52.010;4.446;2024-03-25T12:42:32;15.00;97.90
41294;DHT22;27037;52.010;4.446;2024-03-25T12:44:58;15.00;96.60
41294;DHT22;27037;52.010;4.446;2024-03-25T12:47:23;15.00;97.60
41294;DHT22;27037;52.010;4.446;2024-03-25T12:49:49;15.10;97.70
41294;DHT22;27037;52.010;4.446;2024-03-25T12:52:15;15.00;95.10
41294;DHT22;27037;52.010;4.446;2024-03-25T12:54:40;14.90;95.60
41294;DHT22;27037;52.010;4.446;2024-03-25T12:57:08;14.90;95.30
41294;DHT22;27037;52.010;4.446;2024-03-25T12:59:33;14.80;96.50
41294;DHT22;27037;52.010;4.446;2024-03-25T13:01:59;14.80;95.80
41294;DHT22;27037;52.010;4.446;2024-03-25T13:04:26;14.70;95.80
41294;DHT22;27037;52.010;4.446;2024-03-25T13:06:52;14.80;95.40
41294;DHT22;27037;52.010;4.446;2024-03-25T13:09:17;14.80;94.10
41294;DHT22;27037;52.010;4.446;2024-03-25T13:11:43;14.70;94.00
41294;DHT22;27037;52.010;4.446;2024-03-25T13:14:11;14.70;94.60
41294;DHT22;27037;52.010;4.446;2024-03-25T13:16:37;14.80;95.80
41294;DHT22;27037;52.010;4.446;2024-03-25T13:19:03;14.90;95.60
41294;DHT22;27037;52.010;4.446;2024-03-25T13:21:29;14.90;94.70
41294;DHT22;27037;52.010;4.446;2024-03-25T13:23:54;14.90;94.40
41294;DHT22;27037;52.010;4.446;2024-03-25T13:26:20;14.90;94.30
41294;DHT22;27037;52.010;4.446;2024-03-25T13:28:45;15.00;94.00
41294;DHT22;27037;52.010;4.446;2024-03-25T13:31:11;15.10;94.50
41294;DHT22;27037;52.010;4.446;2024-03-25T13:33:38;15.20;92.60
41294;DHT22;27037;52.010;4.446;2024-03-25T13:36:05;15.30;90.40
41294;DHT22;27037;52.010;4.446;2024-03-25T13:38:31;15.40;91.10
41294;DHT22;27037;52.010;4.446;2024-03-25T13:40:57;15.50;91.40
41294;DHT22;27037;52.010;4.446;2024-03-25T13:43:23;15.60;90.70
41294;DHT22;27037;52.010;4.446;2024-03-25T13:45:49;15.70;91.40
41294;DHT22;27037;52.010;4.446;2024-03-25T13:48:18;15.80;90.30
41294;DHT22;27037;52.010;4.446;2024-03-25T13:50:43;15.80;89.70
41294;DHT22;27037;52.010;4.446;2024-03-25T13:53:09;15.90;90.20
41294;DHT22;27037;52.010;4.446;2024-03-25T13:55:36;16.00;89.80
41294;DHT22;27037;52.010;4.446;2024-03-25T13:58:01;16.00;89.20
41294;DHT22;27037;52.010;4.446;2024-03-25T14:00:27;16.20;89.10
41294;DHT22;27037;52.010;4.446;2024-03-25T14:02:54;16.30;88.70
41294;DHT22;27037;52.010;4.446;2024-03-25T14:05:20;16.20;86.20
41294;DHT22;27037;52.010;4.446;2024-03-25T14:07:46;16.20;86.00
41294;DHT22;27037;52.010;4.446;2024-03-25T14:10:12;16.10;85.50
41294;DHT22;27037;52.010;4.446;2024-03-25T14:12:38;16.00;84.30
41294;DHT22;27037;52.010;4.446;2024-03-25T14:15:04;15.80;81.10
41294;DHT22;27037;52.010;4.446;2024-03-25T14:17:29;15.60;77.40
41294;DHT22;27037;52.010;4.446;2024-03-25T14:19:56;15.40;78.30
41294;DHT22;27037;52.010;4.446;2024-03-25T14:22:22;15.20;79.00
41294;DHT22;27037;52.010;4.446;2024-03-25T14:24:48;15.30;81.50
41294;DHT22;27037;52.010;4.446;2024-03-25T14:27:14;15.30;80.80
41294;DHT22;27037;52.010;4.446;2024-03-25T14:29:40;15.20;80.80
41294;DHT22;27037;52.010;4.446;2024-03-25T14:32:06;15.20;80.50
41294;DHT22;27037;52.010;4.446;2024-03-25T14:34:31;15.20;79.30
41294;DHT22;27037;52.010;4.446;2024-03-25T14:36:58;15.20;78.80
41294;DHT22;27037;52.010;4.446;2024-03-25T14:39:23;15.20;78.30
41294;DHT22;27037;52.010;4.446;2024-03-25T14:41:50;15.20;79.70
41294;DHT22;27037;52.010;4.446;2024-03-25T14:44:16;15.20;78.90
41294;DHT22;27037;52.010;4.446;2024-03-25T14:46:41;15.10;79.40
41294;DHT22;27037;52.010;4.446;2024-03-25T14:49:07;15.00;79.30
41294;DHT22;27037;52.010;4.446;2024-03-25T14:51:32;15.10;80.60
41294;DHT22;27037;52.010;4.446;2024-03-25T14:53:59;15.10;80.40
41294;DHT22;27037;52.010;4.446;2024-03-25T14:56:25;15.00;79.00
41294;DHT22;27037;52.010;4.446;2024-03-25T14:58:50;14.90;80.50
41294;DHT22;27037;52.010;4.446;2024-03-25T15:01:16;14.80;82.30
41294;DHT22;27037;52.010;4.446;2024-03-25T15:03:41;14.70;83.20
41294;DHT22;27037;52.010;4.446;2024-03-25T15:06:07;14.70;84.10
41294;DHT22;27037;52.010;4.446;2024-03-25T15:08:33;14.60;84.70
41294;DHT22;27037;52.010;4.446;2024-03-25T15:10:58;14.50;87.70
41294;DHT22;27037;52.010;4.446;2024-03-25T15:13:24;14.50;88.60
41294;DHT22;27037;52.010;4.446;2024-03-25T15:15:50;14.50;89.10
41294;DHT22;27037;52.010;4.446;2024-03-25T15:18:15;14.50;89.00
41294;DHT22;27037;52.010;4.446;2024-03-25T15:20:41;14.60;90.00
41294;DHT22;27037;52.010;4.446;2024-03-25T15:23:07;14.70;89.30
41294;DHT22;27037;52.010;4.446;2024-03-25T15:25:32;14.70;89.00
41294;DHT22;27037;52.010;4.446;2024-03-25T15:27:58;14.80;86.10
41294;DHT22;27037;52.010;4.446;2024-03-25T15:30:24;14.70;85.60
41294;DHT22;27037;52.010;4.446;2024-03-25T15:32:49;14.70;85.70
41294;DHT22;27037;52.010;4.446;2024-03-25T15:35:15;14.60;85.70
41294;DHT22;27037;52.010;4.446;2024-03-25T15:37:41;14.60;85.10
41294;DHT22;27037;52.010;4.446;2024-03-25T15:40:07;14.60;85.30